Time;durP1;ratioP1;P1;durP2;ratioP2;P2;SDS_P1;SDS_P2;PMS_P1;PMS_P2;Temp;Humidity;BMP_temperature;BMP_pressure;BME280_temperature;BME280_humidity;BME280_pressure;Samples;Min_cycle;Max_cycle;Signal;HPM_P1;HPM_P2
2022/08/02 00:00:27;;;;;;;4.65;2.42;;;;;;;25.55;37.10;101485.78;5023840;28;20045;-69
2022/08/02 00:02:57;;;;;;;4.50;2.30;;;;;;;25.54;36.92;101482.16;5028541;28;20045;-68
2022/08/02 00:05:25;;;;;;;4.43;2.60;;;;;;;25.50;36.68;101489.16;5013765;28;20474;-68
2022/08/02 00:07:53;;;;;;;4.47;2.67;;;;;;;25.49;36.70;101486.53;4991769;28;20049;-69
2022/08/02 00:10:21;;;;;;;4.30;2.30;;;;;;;25.46;37.24;101482.22;5008113;28;20057;-69
2022/08/02 00:12:49;;;;;;;4.30;2.53;;;;;;;25.44;36.91;101489.88;5008831;28;20502;-67
2022/08/02 00:15:17;;;;;;;3.75;2.40;;;;;;;25.43;37.12;101484.50;5007791;28;20698;-69
2022/08/02 00:17:45;;;;;;;4.38;2.20;;;;;;;25.40;37.45;101492.16;4991264;28;20111;-70
2022/08/02 00:20:16;;;;;;;4.43;2.28;;;;;;;25.41;37.02;101487.47;5008029;28;20116;-69
2022/08/02 00:22:45;;;;;;;4.75;2.70;;;;;;;25.37;37.51;101473.06;5008778;28;20479;-70
2022/08/02 00:25:13;;;;;;;4.00;2.47;;;;;;;25.34;37.37;101480.91;5008186;28;20133;-69
2022/08/02 00:27:41;;;;;;;4.05;2.55;;;;;;;25.32;37.41;101477.44;5008907;28;20112;-68
2022/08/02 00:30:10;;;;;;;6.22;2.72;;;;;;;25.29;37.25;101472.25;5007813;28;20065;-67
2022/08/02 00:32:38;;;;;;;5.50;2.60;;;;;;;25.26;37.61;101480.97;5009019;28;20038;-70
2022/08/02 00:35:09;;;;;;;3.88;2.40;;;;;;;25.24;37.33;101480.28;5010012;28;20050;-69
2022/08/02 00:37:42;;;;;;;4.78;2.78;;;;;;;25.22;37.83;101480.44;5013104;28;20507;-68
2022/08/02 00:40:11;;;;;;;4.70;2.40;;;;;;;25.17;37.88;101471.81;5027401;28;20045;-69
2022/08/02 00:42:40;;;;;;;5.28;2.50;;;;;;;25.15;37.43;101473.91;5032975;28;20140;-69
2022/08/02 00:45:08;;;;;;;4.68;2.58;;;;;;;25.12;37.82;101470.63;5031605;28;20428;-69
2022/08/02 00:47:36;;;;;;;5.13;2.80;;;;;;;25.08;37.56;101464.56;5032451;28;20056;-69
2022/08/02 00:50:05;;;;;;;3.60;2.45;;;;;;;25.05;37.74;101459.34;5031573;28;20052;-69
2022/08/02 00:52:33;;;;;;;5.30;2.67;;;;;;;25.01;37.95;101464.44;5032666;28;20180;-70
2022/08/02 00:55:03;;;;;;;4.07;2.20;;;;;;;25.00;37.87;101471.03;5013516;28;20192;-67
2022/08/02 00:57:31;;;;;;;3.38;2.20;;;;;;;24.93;37.79;101463.59;5032282;28;20045;-69
2022/08/02 00:59:59;;;;;;;4.65;2.67;;;;;;;24.91;37.91;101471.25;5031394;28;20128;-69
2022/08/02 01:02:27;;;;;;;3.55;2.30;;;;;;;24.87;38.32;101469.88;5032155;28;20068;-69
2022/08/02 01:04:55;;;;;;;3.47;2.38;;;;;;;24.84;38.32;101457.19;5030557;28;20053;-69
2022/08/02 01:07:23;;;;;;;4.38;2.40;;;;;;;24.80;38.32;101464.13;5014462;28;20529;-69
2022/08/02 01:09:51;;;;;;;4.78;2.50;;;;;;;24.77;38.63;101461.75;5031061;28;20065;-69
2022/08/02 01:12:21;;;;;;;4.60;2.33;;;;;;;24.77;38.50;101472.84;5014027;28;20080;-69
2022/08/02 01:14:51;;;;;;;4.60;2.10;;;;;;;24.74;38.69;101464.88;5012433;28;20152;-69
2022/08/02 01:17:26;;;;;;;3.13;1.92;;;;;;;24.72;39.05;101461.41;5025377;28;20104;-68
2022/08/02 01:20:06;;;;;;;3.47;2.03;;;;;;;24.70;38.70;101462.66;5011037;28;20042;-69
2022/08/02 01:22:53;;;;;;;3.88;2.20;;;;;;;24.68;39.02;101461.94;5012629;28;20474;-69
2022/08/02 01:25:56;;;;;;;4.28;1.80;;;;;;;24.63;39.54;101456.91;5011004;28;20045;-67
2022/08/02 01:28:37;;;;;;;5.78;2.00;;;;;;;24.60;39.46;101452.59;5008369;28;20515;-68
2022/08/02 01:31:14;;;;;;;7.18;2.13;;;;;;;24.58;39.78;101445.50;5010768;28;20065;-67
2022/08/02 01:33:48;;;;;;;3.85;1.77;;;;;;;24.57;39.54;101449.31;5011254;28;20406;-67
2022/08/02 01:36:18;;;;;;;3.45;2.05;;;;;;;24.54;39.75;101441.34;5003635;28;20113;-67
2022/08/02 01:38:49;;;;;;;5.55;1.92;;;;;;;24.51;39.38;101436.16;5010451;28;20050;-69
2022/08/02 01:41:21;;;;;;;3.40;2.35;;;;;;;24.50;39.59;101437.19;5011750;28;20100;-69
2022/08/02 01:43:54;;;;;;;4.13;1.95;;;;;;;24.46;40.17;101441.38;5010154;28;20038;-68
2022/08/02 01:46:23;;;;;;;2.83;1.83;;;;;;;24.44;40.10;101454.56;5010657;28;20048;-69
2022/08/02 01:48:53;;;;;;;4.32;2.17;;;;;;;24.42;39.89;101448.31;5010719;28;20069;-68
2022/08/02 01:52:20;;;;;;;4.38;1.83;;;;;;;24.39;40.27;101449.53;5012080;28;20096;-69
2022/08/02 01:54:14;;;;;;;4.05;1.98;;;;;;;24.37;40.46;101443.31;4992871;28;20062;-69
2022/08/02 01:56:44;;;;;;;2.90;1.90;;;;;;;24.37;40.49;101445.22;5011013;28;20132;-68
2022/08/02 01:59:18;;;;;;;3.88;2.10;;;;;;;24.37;40.97;101440.56;5009964;28;20509;-68
2022/08/02 02:01:49;;;;;;;3.08;2.10;;;;;;;24.32;40.62;101437.41;5011367;28;20473;-69
2022/08/02 02:04:21;;;;;;;3.95;2.00;;;;;;;24.32;40.49;101439.31;5025053;28;20049;-68
2022/08/02 02:06:51;;;;;;;3.83;2.00;;;;;;;24.26;40.38;101441.78;5011266;28;20042;-67
2022/08/02 02:09:21;;;;;;;4.93;2.15;;;;;;;24.29;40.56;101445.25;5029697;28;20049;-69
2022/08/02 02:11:50;;;;;;;3.63;2.33;;;;;;;24.25;40.53;101433.63;5046044;28;20047;-68
2022/08/02 02:14:42;;;;;;;4.18;2.13;;;;;;;24.24;40.78;101432.75;5049822;28;20049;-68
2022/08/02 02:17:20;;;;;;;4.93;2.20;;;;;;;24.23;40.56;101432.94;5050594;28;20045;-67
2022/08/02 02:20:13;;;;;;;4.10;2.28;;;;;;;24.20;40.26;101431.41;5049735;28;20372;-68
2022/08/02 02:22:41;;;;;;;4.50;2.33;;;;;;;24.15;40.51;101428.25;5050668;28;20512;-66
2022/08/02 02:25:10;;;;;;;3.78;2.33;;;;;;;24.16;40.34;101426.34;5049333;28;20045;-69
2022/08/02 02:27:43;;;;;;;;;;;;;;;23.87;40.78;101429.69;5050936;28;20409;-68
2022/08/02 02:30:13;;;;;;;4.65;2.00;;;;;;;24.11;40.89;101431.56;5049482;28;19968;-68
2022/08/02 02:32:44;;;;;;;5.10;2.20;;;;;;;24.10;40.30;101435.38;5050641;28;20041;-67
2022/08/02 02:35:16;;;;;;;3.15;1.95;;;;;;;24.10;41.09;101429.81;5049222;28;20498;-68
2022/08/02 02:37:44;;;;;;;;;;;;;;;23.78;41.05;101433.50;5050900;28;20463;-66
2022/08/02 02:40:15;;;;;;;3.65;1.90;;;;;;;23.99;40.43;101428.28;5049062;28;20007;-69
2022/08/02 02:42:44;;;;;;;3.63;2.10;;;;;;;24.00;40.58;101424.47;5049680;28;20045;-69
2022/08/02 02:45:20;;;;;;;5.82;2.40;;;;;;;24.00;40.64;101426.38;5049300;28;20095;-69
2022/08/02 02:47:49;;;;;;;3.80;1.90;;;;;;;23.94;41.10;101432.63;5031950;28;20528;-70
2022/08/02 02:50:18;;;;;;;4.55;2.00;;;;;;;23.93;40.69;101420.66;5048448;28;20057;-69
2022/08/02 02:52:48;;;;;;;4.05;2.40;;;;;;;23.93;41.16;101419.78;5050073;28;20041;-69
2022/08/02 02:55:17;;;;;;;3.20;2.03;;;;;;;23.90;41.06;101421.88;5030893;28;20135;-69
2022/08/02 02:57:46;;;;;;;3.60;2.15;;;;;;;23.87;40.95;101413.06;5048494;28;20049;-69
2022/08/02 03:00:15;;;;;;;3.83;2.42;;;;;;;23.85;41.40;101416.00;5048433;28;20065;-68
2022/08/02 03:02:45;;;;;;;3.40;2.35;;;;;;;23.84;41.65;101403.16;5049784;28;20087;-69
2022/08/02 03:05:15;;;;;;;4.15;2.35;;;;;;;23.82;41.19;101402.47;5048594;28;20045;-68
2022/08/02 03:07:43;;;;;;;4.07;2.28;;;;;;;23.78;41.21;101403.00;5049155;28;20068;-69
2022/08/02 03:10:11;;;;;;;5.10;2.30;;;;;;;23.77;41.28;101404.91;5048656;28;20045;-69
2022/08/02 03:12:40;;;;;;;4.65;2.42;;;;;;;23.76;41.12;101410.63;5049759;28;20056;-69
2022/08/02 03:15:12;;;;;;;3.13;2.13;;;;;;;23.73;41.17;101403.50;5048163;28;20094;-67
2022/08/02 03:17:41;;;;;;;4.07;2.42;;;;;;;23.70;41.59;101405.78;5031927;28;20075;-68
2022/08/02 03:20:13;;;;;;;3.90;2.53;;;;;;;23.71;41.52;101404.75;5048778;28;20119;-69
2022/08/02 03:22:42;;;;;;;5.57;2.70;;;;;;;23.65;41.36;101402.66;5048993;28;20048;-68
2022/08/02 03:25:11;;;;;;;3.97;2.42;;;;;;;23.65;41.73;101410.97;5048373;28;20501;-70
2022/08/02 03:27:39;;;;;;;3.60;2.47;;;;;;;23.63;41.79;101415.84;5049365;28;20078;-68
2022/08/02 03:30:10;;;;;;;3.35;2.50;;;;;;;23.63;41.83;101413.06;5030199;28;20041;-69
2022/08/02 03:32:40;;;;;;;3.50;2.45;;;;;;;23.59;41.38;101409.75;5031181;28;20071;-69
2022/08/02 03:35:14;;;;;;;4.90;2.50;;;;;;;23.59;42.10;101408.91;5048252;28;20041;-69
2022/08/02 03:37:51;;;;;;;4.95;2.58;;;;;;;23.56;41.93;101410.09;5049080;28;20041;-67
2022/08/02 03:40:20;;;;;;;4.07;2.53;;;;;;;23.53;41.89;101410.47;5047647;28;20416;-69
2022/08/02 03:42:50;;;;;;;4.32;2.80;;;;;;;23.51;41.99;101405.09;5049174;28;20163;-69
2022/08/02 03:45:18;;;;;;;3.97;2.45;;;;;;;23.49;41.51;101409.94;5047954;28;20135;-69
2022/08/02 03:47:47;;;;;;;4.60;2.65;;;;;;;23.47;42.12;101408.38;5030374;28;20127;-68
2022/08/02 03:50:17;;;;;;;3.97;2.92;;;;;;;23.47;41.66;101394.50;5048002;28;20037;-69
2022/08/02 03:52:46;;;;;;;4.25;2.55;;;;;;;23.43;42.15;101396.75;5049279;28;20489;-68
2022/08/02 03:55:14;;;;;;;4.40;2.60;;;;;;;23.39;42.14;101403.66;5029270;28;20474;-68
2022/08/02 03:57:43;;;;;;;5.22;2.60;;;;;;;23.38;42.10;101398.31;5048719;28;20139;-69
2022/08/02 04:00:17;;;;;;;4.85;2.90;;;;;;;23.35;42.05;101399.50;5047714;28;20048;-68
2022/08/02 04:02:45;;;;;;;3.83;2.83;;;;;;;23.30;41.60;101401.94;5048441;28;20494;-68
2022/08/02 04:05:13;;;;;;;5.03;2.50;;;;;;;23.27;42.22;101410.59;5047253;28;20133;-68
2022/08/02 04:07:43;;;;;;;4.40;2.90;;;;;;;23.27;41.83;101410.59;5048810;28;20049;-69
2022/08/02 04:11:29;;;;;;;4.20;2.58;;;;;;;23.22;41.88;101407.47;5046943;28;20049;-68
2022/08/02 04:13:22;;;;;;;3.92;2.75;;;;;;;23.21;42.11;101410.41;5029914;28;20095;-69
2022/08/02 04:16:07;;;;;;;3.97;2.88;;;;;;;23.21;42.08;101407.66;5047319;28;20041;-68
2022/08/02 04:18:40;;;;;;;4.38;2.88;;;;;;;23.19;42.56;101402.25;5048056;28;20057;-69
2022/08/02 04:21:14;;;;;;;4.40;2.95;;;;;;;23.19;42.86;101415.25;5048246;28;20048;-66
2022/08/02 04:23:47;;;;;;;3.28;2.65;;;;;;;23.18;42.92;101407.97;5047401;28;20048;-69
2022/08/02 04:26:17;;;;;;;3.42;2.80;;;;;;;23.15;42.59;101411.94;5030353;28;20131;-69
2022/08/02 04:28:54;;;;;;;4.30;2.85;;;;;;;23.13;42.63;101414.91;5028579;28;20455;-68
2022/08/02 04:31:24;;;;;;;5.55;3.60;;;;;;;23.14;42.74;101419.38;5048336;28;20045;-69
2022/08/02 04:33:52;;;;;;;4.88;3.20;;;;;;;23.12;42.51;101418.72;5047359;28;20536;-69
2022/08/02 04:36:21;;;;;;;4.43;3.50;;;;;;;23.12;42.58;101420.63;5047954;28;20045;-68
2022/08/02 04:39:00;;;;;;;4.65;3.25;;;;;;;23.11;42.72;101418.88;5046868;28;20493;-69
2022/08/02 04:41:38;;;;;;;5.22;3.35;;;;;;;23.12;42.91;101418.72;5048477;28;20045;-69
2022/08/02 04:44:10;;;;;;;4.72;3.30;;;;;;;23.06;42.61;101416.59;5046974;28;20052;-68
2022/08/02 04:46:38;;;;;;;4.72;3.60;;;;;;;23.08;43.06;101428.38;5030718;28;20362;-70
2022/08/02 04:49:07;;;;;;;5.13;3.63;;;;;;;23.07;42.80;101420.25;5029220;28;20045;-69
2022/08/02 04:51:36;;;;;;;5.95;3.28;;;;;;;23.06;43.09;101419.38;5048209;28;20087;-67
2022/08/02 04:54:09;;;;;;;6.15;3.70;;;;;;;23.09;43.25;101416.28;5046632;28;20055;-70
2022/08/02 04:56:37;;;;;;;4.53;3.70;;;;;;;23.04;42.69;101423.38;5048146;28;20122;-69
2022/08/02 04:59:05;;;;;;;5.63;3.92;;;;;;;23.06;42.81;101427.69;5047304;28;20565;-69
2022/08/02 05:01:36;;;;;;;5.80;3.92;;;;;;;23.04;43.30;101429.78;5047643;28;20045;-70
2022/08/02 05:04:04;;;;;;;5.80;3.90;;;;;;;23.03;43.43;101430.81;5042621;28;20057;-69
2022/08/02 05:06:32;;;;;;;5.90;3.97;;;;;;;23.02;42.89;101422.66;5027999;28;20087;-68
2022/08/02 05:09:00;;;;;;;5.10;3.63;;;;;;;23.01;42.85;101426.47;5026889;28;20570;-67
2022/08/02 05:11:30;;;;;;;6.32;3.67;;;;;;;23.01;43.18;101432.88;5027976;28;20038;-70
2022/08/02 05:14:04;;;;;;;8.25;4.35;;;;;;;23.00;43.12;101424.72;5027428;28;20038;-69
2022/08/02 05:16:32;;;;;;;5.25;3.60;;;;;;;23.00;43.51;101425.59;5010016;28;20495;-68
2022/08/02 05:19:01;;;;;;;5.03;3.50;;;;;;;23.00;43.15;101421.97;5026473;28;20072;-69
2022/08/02 05:21:30;;;;;;;5.35;4.20;;;;;;;23.01;43.28;101424.56;5030775;28;20049;-69
2022/08/02 05:23:58;;;;;;;4.90;3.72;;;;;;;23.02;43.81;101423.53;5030651;28;20038;-69
2022/08/02 05:26:27;;;;;;;5.80;3.92;;;;;;;23.06;43.93;101418.53;5030966;28;20125;-69
2022/08/02 05:28:56;;;;;;;5.53;4.07;;;;;;;23.13;44.13;101427.88;5030713;28;20052;-70
2022/08/02 05:31:24;;;;;;;5.90;4.10;;;;;;;23.16;44.10;101422.00;5031466;28;20497;-70
2022/08/02 05:33:52;;;;;;;5.75;4.00;;;;;;;23.24;43.83;101427.53;5030291;28;20400;-69
2022/08/02 05:36:20;;;;;;;5.22;3.63;;;;;;;23.35;44.18;101424.44;5031195;28;20448;-69
2022/08/02 05:38:49;;;;;;;5.47;3.90;;;;;;;23.47;44.07;101425.00;5030647;28;20042;-69
2022/08/02 05:41:18;;;;;;;6.25;3.85;;;;;;;23.61;43.52;101432.66;5023184;28;20041;-70
2022/08/02 05:43:46;;;;;;;7.32;4.22;;;;;;;23.76;43.54;101425.34;5029792;28;20509;-68
2022/08/02 05:46:16;;;;;;;5.32;4.05;;;;;;;23.94;43.48;101418.75;5031175;28;20065;-68
2022/08/02 05:48:44;;;;;;;5.07;4.00;;;;;;;24.08;43.51;101423.56;5030500;28;20577;-70
2022/08/02 05:51:19;;;;;;;5.93;4.25;;;;;;;24.26;43.37;101427.91;5013208;28;20562;-67
2022/08/02 05:53:51;;;;;;;5.95;4.70;;;;;;;24.46;42.90;101425.56;5029800;28;20044;-68
2022/08/02 05:56:23;;;;;;;;;;;;;;;24.31;43.41;101421.81;5042662;23;20040;-74
2022/08/02 05:58:56;;;;;;;5.20;3.72;;;;;;;24.74;42.95;101420.44;5083470;28;19927;-74
2022/08/02 06:01:32;;;;;;;5.63;3.92;;;;;;;24.96;42.26;101416.00;5084845;28;20518;-75
2022/08/02 06:04:01;;;;;;;5.65;4.05;;;;;;;25.11;42.29;101416.97;5089544;28;20089;-74
2022/08/02 06:06:32;;;;;;;6.45;4.15;;;;;;;25.28;41.78;101420.50;5086271;28;20381;-74
2022/08/02 06:09:08;;;;;;;5.57;3.78;;;;;;;25.44;41.77;101422.28;5087899;28;20094;-74
2022/08/02 06:11:39;;;;;;;5.95;3.97;;;;;;;25.58;41.66;101427.03;5091116;28;20040;-69
2022/08/02 06:14:08;;;;;;;6.28;3.80;;;;;;;25.70;41.63;101431.13;5082835;28;20496;-70
2022/08/02 06:16:37;;;;;;;6.43;3.90;;;;;;;25.85;40.97;101429.28;5089584;28;20381;-68
2022/08/02 06:19:11;;;;;;;6.63;3.97;;;;;;;25.98;41.24;101426.69;5071147;28;20044;-65
2022/08/02 06:21:41;;;;;;;5.45;3.47;;;;;;;26.14;40.59;101422.88;5090460;28;20469;-66
2022/08/02 06:24:30;;;;;;;5.95;3.55;;;;;;;26.29;40.73;101414.56;5089292;28;20066;-66
2022/08/02 06:27:00;;;;;;;6.03;3.92;;;;;;;26.42;40.23;101421.22;5089799;28;20111;-66
2022/08/02 06:29:32;;;;;;;5.05;3.47;;;;;;;26.59;39.63;101418.22;5085789;28;20135;-66
2022/08/02 06:32:08;;;;;;;6.32;3.50;;;;;;;26.72;39.51;101419.25;5070698;28;20074;-66
2022/08/02 06:34:38;;;;;;;5.60;3.10;;;;;;;26.86;39.50;101418.34;5088516;28;20040;-66
2022/08/02 06:37:13;;;;;;;4.78;3.80;;;;;;;27.06;39.18;101415.00;5083890;28;20091;-64
2022/08/02 06:39:45;;;;;;;5.88;3.72;;;;;;;27.21;38.64;101413.03;5088723;28;20400;-74
2022/08/02 06:42:17;;;;;;;5.03;3.38;;;;;;;27.37;38.69;101420.25;5090296;28;20044;-74
2022/08/02 06:44:55;;;;;;;5.22;3.38;;;;;;;27.53;38.51;101429.25;5051328;28;20098;-73
2022/08/02 06:47:26;;;;;;;6.28;3.63;;;;;;;27.74;38.41;101425.63;5070484;28;20048;-76
2022/08/02 06:49:57;;;;;;;6.32;3.38;;;;;;;27.91;38.18;101406.66;5089013;28;20044;-73
2022/08/02 06:52:27;;;;;;;4.88;3.35;;;;;;;28.08;37.94;101413.66;5090316;28;20036;-74
2022/08/02 06:54:58;;;;;;;4.63;3.33;;;;;;;28.20;37.38;101417.63;5106991;28;20052;-74
2022/08/02 06:57:26;;;;;;;5.97;3.38;;;;;;;28.35;37.05;101418.38;5110286;28;20040;-74
2022/08/02 06:59:54;;;;;;;4.90;3.50;;;;;;;28.46;36.80;101413.28;5090058;28;20044;-74
2022/08/02 07:02:22;;;;;;;5.50;3.38;;;;;;;28.58;36.64;101417.22;5090246;28;20044;-74
2022/08/02 07:04:52;;;;;;;5.75;3.10;;;;;;;28.70;36.20;101418.34;5088705;28;20581;-74
2022/08/02 07:07:20;;;;;;;5.00;3.15;;;;;;;28.76;36.06;101418.41;5089407;28;20040;-73
2022/08/02 07:09:50;;;;;;;6.20;3.42;;;;;;;28.84;36.18;101425.75;5089341;28;20058;-74
2022/08/02 07:12:29;;;;;;;4.85;3.15;;;;;;;28.94;36.00;101422.56;5072050;28;20051;-74
2022/08/02 07:14:57;;;;;;;6.25;3.38;;;;;;;29.00;35.67;101414.19;5088290;28;20087;-74
2022/08/02 07:17:25;;;;;;;5.60;3.42;;;;;;;29.06;35.86;101412.53;5087195;28;20050;-74
2022/08/02 07:19:54;;;;;;;4.65;3.00;;;;;;;29.15;35.40;101420.47;5089063;28;20068;-74
2022/08/02 07:22:23;;;;;;;4.70;3.35;;;;;;;29.18;35.05;101415.56;5089484;28;20396;-74
2022/08/02 07:24:51;;;;;;;5.25;3.40;;;;;;;29.21;34.92;101410.41;5089810;28;20513;-74
2022/08/02 07:27:20;;;;;;;5.38;3.13;;;;;;;29.25;34.85;101402.44;5090472;28;20047;-74
2022/08/02 07:29:48;;;;;;;5.78;3.15;;;;;;;29.29;34.81;101404.63;5088393;28;20126;-74
2022/08/02 07:32:17;;;;;;;4.32;3.00;;;;;;;29.33;34.85;101410.63;5083413;28;20497;-73
2022/08/02 07:34:46;;;;;;;5.35;2.92;;;;;;;29.37;34.65;101407.25;5088176;28;20044;-74
2022/08/02 07:37:22;;;;;;;4.18;3.10;;;;;;;29.43;34.61;101409.19;5090690;28;20044;-74
2022/08/02 07:40:11;;;;;;;4.13;2.80;;;;;;;29.47;34.67;101407.72;5088006;28;20059;-73
2022/08/02 07:42:43;;;;;;;5.50;3.03;;;;;;;29.51;34.27;101406.19;5089457;28;20036;-73
2022/08/02 07:45:11;;;;;;;4.60;2.90;;;;;;;29.57;34.40;101406.44;5088448;28;20537;-74
2022/08/02 07:47:41;;;;;;;3.90;2.90;;;;;;;29.62;34.11;101410.31;5100734;28;20420;-73
2022/08/02 07:50:11;;;;;;;5.15;3.00;;;;;;;29.67;34.37;101407.72;5088254;28;20063;-73
2022/08/02 07:52:41;;;;;;;4.45;2.90;;;;;;;29.74;34.30;101407.72;5089440;28;20499;-74
2022/08/02 07:55:10;;;;;;;4.50;2.78;;;;;;;29.78;34.19;101398.69;5087676;28;20044;-73
2022/08/02 07:57:39;;;;;;;4.60;2.70;;;;;;;29.89;34.20;101405.56;5089599;28;20158;-73
2022/08/02 08:00:15;;;;;;;5.03;3.03;;;;;;;29.98;34.03;101406.25;5058114;28;20039;-73
2022/08/02 08:02:45;;;;;;;4.93;2.80;;;;;;;30.07;33.95;101404.91;5067887;28;20045;-73
2022/08/02 08:05:17;;;;;;;4.38;2.70;;;;;;;30.15;33.88;101397.16;5068016;28;20044;-73
2022/08/02 08:07:47;;;;;;;5.30;2.95;;;;;;;30.29;33.55;101399.97;5087979;28;20511;-74
2022/08/02 08:10:18;;;;;;;3.83;2.60;;;;;;;30.39;33.34;101398.41;5087420;28;20408;-73
2022/08/02 08:12:46;;;;;;;3.90;2.67;;;;;;;30.45;33.47;101389.13;5089436;28;20115;-73
2022/08/02 08:15:17;;;;;;;4.20;2.88;;;;;;;30.57;33.43;101393.00;5088181;28;20066;-74
2022/08/02 08:17:45;;;;;;;4.70;2.87;;;;;;;30.63;33.22;101397.75;5088864;28;20404;-73
2022/08/02 08:20:13;;;;;;;5.90;2.63;;;;;;;30.76;33.22;101396.81;5087726;28;20147;-74
2022/08/02 08:22:43;;;;;;;4.18;2.88;;;;;;;30.88;32.72;101391.38;5088894;28;20040;-74
2022/08/02 08:25:12;;;;;;;3.40;2.42;;;;;;;30.99;32.69;101391.53;5087668;28;20520;-73
2022/08/02 08:27:48;;;;;;;4.47;2.70;;;;;;;31.11;32.03;101390.84;5088303;28;20493;-74
2022/08/02 08:30:16;;;;;;;5.32;3.20;;;;;;;31.18;32.26;101391.66;5088298;28;20442;-74
2022/08/02 08:32:45;;;;;;;4.68;2.55;;;;;;;31.27;32.16;101387.53;5088847;28;20036;-74
2022/08/02 08:35:14;;;;;;;4.93;2.90;;;;;;;31.35;31.76;101390.91;5087581;28;20052;-73
2022/08/02 08:37:43;;;;;;;3.60;2.55;;;;;;;31.45;32.27;101386.75;5089177;28;20124;-74
2022/08/02 08:40:13;;;;;;;4.35;2.30;;;;;;;31.58;31.63;101383.84;5087839;28;20527;-74
2022/08/02 08:42:46;;;;;;;4.70;2.60;;;;;;;31.64;31.75;101388.56;5088194;28;20032;-74
2022/08/02 08:45:16;;;;;;;3.33;2.25;;;;;;;31.73;31.30;101385.25;5087790;28;20475;-74
2022/08/02 08:47:51;;;;;;;3.20;2.30;;;;;;;31.85;31.00;101391.00;5089183;28;20040;-74
2022/08/02 08:50:24;;;;;;;4.00;2.35;;;;;;;31.92;31.41;101379.69;5087571;28;20043;-74
2022/08/02 08:52:57;;;;;;;4.63;2.20;;;;;;;32.01;30.79;101386.75;5089239;28;20039;-73
2022/08/02 08:55:28;;;;;;;4.03;2.40;;;;;;;32.09;30.78;101386.44;5070352;28;20046;-74
2022/08/02 08:57:59;;;;;;;3.50;2.10;;;;;;;32.16;30.84;101380.78;5092060;28;20130;-74
2022/08/02 09:00:29;;;;;;;3.65;2.00;;;;;;;32.24;31.01;101380.47;5091763;28;20040;-74
2022/08/02 09:02:58;;;;;;;3.53;2.33;;;;;;;32.32;30.52;101378.22;5092364;28;20135;-74
2022/08/02 09:05:26;;;;;;;3.67;2.55;;;;;;;32.40;30.48;101377.91;5091261;28;20408;-73
2022/08/02 09:07:54;;;;;;;4.35;2.13;;;;;;;32.50;30.39;101380.19;5091690;28;20076;-74
2022/08/02 09:10:43;;;;;;;3.42;1.90;;;;;;;32.58;29.84;101371.44;5091598;28;20044;-74
2022/08/02 09:13:15;;;;;;;3.45;2.50;;;;;;;32.67;29.82;101370.03;5092090;28;20055;-74
2022/08/02 09:16:04;;;;;;;;;;;;;;;32.42;30.85;101361.69;5092103;28;20302;-73
2022/08/02 09:18:43;;;;;;;3.38;1.98;;;;;;;32.80;30.22;101352.16;5091024;28;20582;-74
2022/08/02 09:21:13;;;;;;;3.47;2.22;;;;;;;32.89;29.74;101359.16;5073782;28;20052;-74
2022/08/02 09:23:43;;;;;;;4.57;2.35;;;;;;;32.98;29.78;101354.94;5091375;28;20040;-74
2022/08/02 09:26:15;;;;;;;3.78;2.40;;;;;;;33.06;28.94;101357.41;5091524;28;20056;-73
2022/08/02 09:28:50;;;;;;;3.55;2.30;;;;;;;33.11;28.96;101353.91;5092039;28;20044;-73
2022/08/02 09:31:19;;;;;;;3.53;2.22;;;;;;;33.18;29.30;101357.47;5073532;28;20074;-73
2022/08/02 09:33:52;;;;;;;4.63;2.63;;;;;;;33.30;28.66;101363.16;5090715;28;20052;-74
2022/08/02 09:36:21;;;;;;;3.25;2.20;;;;;;;33.34;29.02;101356.81;5091672;28;20040;-74
2022/08/02 09:38:55;;;;;;;3.42;2.25;;;;;;;33.45;28.37;101350.34;5090567;28;20536;-74
2022/08/02 09:41:26;;;;;;;4.13;2.25;;;;;;;33.53;28.55;101354.75;5091529;28;20460;-74
2022/08/02 09:43:56;;;;;;;3.30;2.23;;;;;;;33.57;28.73;101353.19;5090896;28;20489;-74
2022/08/02 09:46:37;;;;;;;3.05;2.15;;;;;;;33.66;28.49;101354.56;5091907;28;20039;-74
2022/08/02 09:49:09;;;;;;;4.05;2.17;;;;;;;33.74;28.58;101354.22;5090033;28;20166;-74
2022/08/02 09:51:38;;;;;;;3.30;2.03;;;;;;;33.78;28.46;101346.13;5091783;28;20562;-74
2022/08/02 09:54:08;;;;;;;3.35;2.22;;;;;;;33.87;27.68;101344.66;5090505;28;20127;-73
2022/08/02 09:56:44;;;;;;;3.88;2.42;;;;;;;33.96;27.18;101349.69;5091238;28;20453;-74
2022/08/02 09:59:13;;;;;;;4.22;2.38;;;;;;;34.02;27.65;101347.00;5072216;28;20052;-74
2022/08/02 10:01:43;;;;;;;3.55;2.10;;;;;;;34.10;27.83;101339.03;5091369;28;20492;-74
2022/08/02 10:04:28;;;;;;;3.10;2.20;;;;;;;34.17;27.22;101339.78;5090023;28;20070;-74
2022/08/02 10:06:58;;;;;;;3.60;2.05;;;;;;;34.20;27.15;101336.44;5091132;28;20044;-73
2022/08/02 10:09:28;;;;;;;4.60;2.15;;;;;;;34.31;27.28;101344.06;5090002;28;20508;-74
2022/08/02 10:11:59;;;;;;;3.92;2.30;;;;;;;34.37;26.84;101330.94;5090665;28;20122;-74
2022/08/02 10:14:28;;;;;;;3.97;2.00;;;;;;;34.39;26.89;101333.50;5072011;28;20071;-73
2022/08/02 10:16:57;;;;;;;3.55;2.28;;;;;;;34.44;26.89;101330.78;5073890;28;20281;-73
2022/08/02 10:19:26;;;;;;;3.78;2.08;;;;;;;34.45;26.30;101340.97;5089579;28;20064;-74
2022/08/02 10:22:15;;;;;;;3.08;2.00;;;;;;;34.45;26.32;101330.56;5091561;28;20044;-73
2022/08/02 10:24:47;;;;;;;4.85;1.98;;;;;;;34.44;26.46;101327.97;5089376;28;20093;-73
2022/08/02 10:27:19;;;;;;;2.85;1.90;;;;;;;34.45;26.47;101329.69;5091143;28;20051;-73
2022/08/02 10:29:49;;;;;;;3.45;1.88;;;;;;;34.38;26.69;101323.34;5090081;28;20047;-73
2022/08/02 10:32:29;;;;;;;2.50;1.80;;;;;;;34.38;25.47;101323.34;5090465;28;20047;-73
2022/08/02 10:35:02;;;;;;;2.42;1.67;;;;;;;34.31;26.04;101327.16;5090235;28;20048;-73
2022/08/02 10:37:50;;;;;;;2.70;1.95;;;;;;;34.25;26.02;101324.47;5090497;28;20491;-73
2022/08/02 10:40:25;;;;;;;2.83;1.63;;;;;;;34.14;26.06;101314.88;5089774;28;20078;-73
2022/08/02 10:42:58;;;;;;;3.53;1.63;;;;;;;34.11;25.73;101315.38;5090710;28;20071;-73
2022/08/02 10:45:28;;;;;;;2.92;1.73;;;;;;;34.04;26.03;101309.00;5088865;28;20048;-73
2022/08/02 10:48:02;;;;;;;2.35;1.60;;;;;;;34.03;26.00;101307.28;5090670;28;20035;-73
2022/08/02 10:50:55;;;;;;;3.10;1.52;;;;;;;34.00;26.05;101305.00;5089188;28;20082;-73
2022/08/02 10:53:29;;;;;;;3.83;1.58;;;;;;;34.03;25.70;101307.28;5090010;28;20040;-73
2022/08/02 10:56:00;;;;;;;2.30;1.40;;;;;;;34.07;25.54;101302.91;5090104;28;20135;-73
2022/08/02 10:58:31;;;;;;;3.63;1.80;;;;;;;34.08;25.47;101300.94;5088963;28;20044;-73
2022/08/02 11:01:04;;;;;;;2.45;1.50;;;;;;;34.10;25.39;101302.38;5089963;28;20139;-73
2022/08/02 11:03:41;;;;;;;2.42;1.60;;;;;;;34.15;25.20;101298.84;5089429;28;20444;-73
2022/08/02 11:06:12;;;;;;;2.90;1.75;;;;;;;34.16;25.50;101309.00;5078612;28;20390;-73
2022/08/02 11:09:27;;;;;;;2.97;1.77;;;;;;;34.17;25.21;101299.47;5109514;28;20510;-73
2022/08/02 11:12:02;;;;;;;2.85;1.65;;;;;;;34.18;25.66;101287.91;5110533;28;20055;-74
2022/08/02 11:14:33;;;;;;;3.40;2.03;;;;;;;34.22;25.54;101291.97;5090712;28;20075;-73
2022/08/02 11:17:13;;;;;;;3.57;1.80;;;;;;;34.27;25.16;101292.09;5092593;28;20046;-73
2022/08/02 11:20:15;;;;;;;2.40;1.67;;;;;;;34.27;25.43;101292.09;5108921;28;20044;-73
2022/08/02 11:22:45;;;;;;;2.80;1.70;;;;;;;34.29;25.53;101297.50;5110325;28;20040;-73
2022/08/02 11:25:35;;;;;;;4.38;1.60;;;;;;;34.30;25.24;101296.38;5108927;28;20057;-73
2022/08/02 11:28:24;;;;;;;2.65;1.63;;;;;;;34.30;24.78;101299.22;5110053;28;20036;-73
2022/08/02 11:31:01;;;;;;;2.78;1.60;;;;;;;34.32;25.02;101291.38;5109132;28;20530;-73
2022/08/02 11:33:31;;;;;;;2.72;1.60;;;;;;;34.30;25.07;101288.78;5109422;28;20134;-73
2022/08/02 11:36:05;;;;;;;2.88;1.80;;;;;;;34.32;24.24;101291.38;5109638;28;20047;-73
2022/08/02 11:38:34;;;;;;;2.50;1.67;;;;;;;34.29;24.73;101294.66;5109010;28;20039;-73
2022/08/02 11:41:03;;;;;;;2.40;1.70;;;;;;;34.31;25.02;101284.00;5109730;28;20081;-73
2022/08/02 11:43:38;;;;;;;2.72;1.45;;;;;;;34.34;25.14;101291.97;5090783;28;20035;-73
2022/08/02 11:46:14;;;;;;;4.20;1.80;;;;;;;34.36;24.51;101284.97;5108994;28;20070;-73
2022/08/02 11:48:43;;;;;;;2.25;1.50;;;;;;;34.35;25.05;101288.03;5109216;28;20293;-73